Théo Duvaldestin

Théo Duvaldestin

Statistiques 2021

  • Courses courues : 90
  • Nb de victoires : 15
  • Nb de places : 35
  • Écart gagnant : -
  • Réussite à la gagne : 17%
  • Réussite à la place : 39%
Musique : 1a 3a 0a 5a 4a Da 3a 6a Da 9a Da Da Da Da Da 5a 3a 0a
DateRangCatégorieAlloc.Dist.HippodromeChevalRed. KmSpé.
07/06/21 1 Trot 22 000€ 3 050m Eauze Diego de Cahot 1'16"2 Attelé
06/06/21 3 Trot 17 000€ 2 925m Bourigny Fix It Attelé
06/06/21 0 Trot 10 000€ 2 900m Bourigny Garodam Attelé
06/06/21 5 Trot 11 000€ 2 925m Bourigny Halbi Attelé
06/06/21 4 Trot 11 000€ 2 925m Bourigny Hunicois Attelé
06/06/21 D Trot 11 000€ 2 925m Bourigny Irina du Vivier Attelé
30/05/21 3 Trot 14 000€ 2 750m Ecommoy Faux Dollars TNC Attelé
30/05/21 6 Trot 22 000€ 2 750m Ecommoy Elegance Express Attelé
30/05/21 D Trot 14 000€ 2 775m Ecommoy Fierte de Corveil Attelé
30/05/21 9 Trot 16 000€ 2 750m Ecommoy Giga du Chene Attelé
30/05/21 D Trot 14 000€ 2 775m Ecommoy Hamandina Attelé
30/05/21 D Trot 13 000€ 2 750m Ecommoy Iggy d'Avril Attelé
29/05/21 D Trot 67 000€ 2 150m Enghien Soisy Carnaval du Vivier Attelé lire

A rejoint les animateurs aux tribunes, puis est venu dominer nettement la situation près du but , a été distancé pour avoir gêné un rival.

29/05/21 D Trot 38 000€ 2 150m Enghien Soisy Iroise de Cahot Attelé
25/05/21 D Trot 100 000€ 2 700m Vincennes In The Money Attelé
24/05/21 5 Trot 30 000€ 2 625m La Rochelle Catch My Love Attelé
24/05/21 3 Trot 19 000€ 2 650m La Rochelle Galipette Pierji Attelé
24/05/21 0 Trot 18 000€ 2 650m La Rochelle Duc du Chene Attelé
24/05/21 D Trot 13 000€ 2 625m La Rochelle Irina Wind Attelé
21/05/21 5 Trot 19 000€ 2 900m Meslay Du Maine Grand Roi Kalouma 1'15"7 Attelé
21/05/21 D Trot 17 000€ 2 600m Meslay Du Maine Hit Money Attelé
21/05/21 D Trot 17 000€ 2 600m Meslay Du Maine Halima du Citrus Attelé
18/05/21 0 Trot 49 000€ 2 100m Vincennes Vanity Luis Attelé lire

N'a joué aucun rôle utile.

14/05/21 3 Trot 18 000€ 2 750m La Capelle Hear Destin 1'17"0 Attelé
14/05/21 7 Trot 18 000€ 2 700m La Capelle Iliade du Goutier 1'17"1 Attelé
05/05/21 3 Trot 33 000€ 2 875m Enghien Soisy He l'Oseille 1'15"6 Attelé
05/05/21 3 Trot 50 000€ 2 875m Enghien Soisy Gloranie des Noes 1'15"0 Attelé lire

Longtemps en queue de peloton, a conclu de très bonne manière.

04/05/21 2 Trot 17 000€ 2 825m Chartres Hamandina 1'15"5 Attelé
30/04/21 7 Trot 38 000€ 2 175m Vincennes Impactdarche 1'14"8 Attelé
30/04/21 5 Trot 53 000€ 2 700m Vincennes Hells Bells 1'12"4 Attelé
29/04/21 5 Trot 23 000€ 2 850m Laval Fast Wind 1'14"8 Attelé
28/04/21 7 Trot 20 000€ 2 850m Maure De Bretagne Heaven Destin 1'16"6 Attelé
27/04/21 3 Trot 100 000€ 2 100m Vincennes In The Money 1'12"9 Attelé lire

Après avoir figuré au sein du peloton, a comblé du terrain tout au long de la phase finale.

27/04/21 9 Trot 18 000€ 2 850m Vincennes Cesario Vici 1'14"9 Attelé
25/04/21 D Trot 17 000€ 2 850m Cordemais Hear Destin Attelé
25/04/21 D Trot 17 000€ 2 650m Cordemais Icylla du Goutier Attelé
24/04/21 2 Trot 13 000€ 2 750m Lisieux Hide Destin 1'15"0 Attelé
23/04/21 1 Trot 18 000€ 2 700m Vincennes Hansford 1'16"3 Attelé
20/04/21 5 Trot 29 000€ 2 100m Vincennes He l'Oseille 1'13"6 Attelé
16/04/21 1 Trot 23 000€ 2 150m Argentan Vanity Luis 1'12"6 Attelé
16/04/21 4 Trot 20 000€ 2 900m Argentan Hansford 1'16"5 Attelé
04/04/21 D Trot 13 000€ 2 625m La Rochelle Harbella Attelé
04/04/21 5 Trot 19 000€ 2 650m La Rochelle Full du Langis 1'16"4 Attelé
04/04/21 1 Trot 13 000€ 2 625m La Rochelle Hear Destin 1'18"0 Attelé
04/04/21 5 Trot 13 000€ 2 500m La Rochelle Imhotep du Goutier 1'18"1 Attelé
26/03/21 D Trot 16 000€ 2 450m Caen Halima du Citrus Attelé
24/03/21 D Trot 20 000€ 2 725m Lisieux Hansford Attelé lire

A rapidement été sanctionné.

20/03/21 1 Trot 13 000€ 2 850m Maure De Bretagne Giuseppe 1'16"4 Attelé
20/03/21 D Trot 10 000€ 2 875m Maure De Bretagne Garodam Attelé
20/03/21 0 Trot 13 000€ 2 850m Maure De Bretagne Gamine d'hawai Attelé